Terminal Aerodrome Forecast
Issued by NWS Denver/Boulder, CO

Home | Current Version | Previous Version | Text Only | Print | Product List | Glossary On
Versions: 1 2 3 4 5 6 7 8 9 10 11 12 13 14 15 16 17 18 19 20 21 22 23 24 25 26 27 28 29 30 31 32 33 34 35 36 37 38 39 40 41 42 43 44 45 46 47 48 49 50
000
FTUS45 KBOU 262324
TAFDEN
TAF
KDEN 262324Z 2700/2806 07013KT 1/2SM SN FZFG VV012
     FM270100 07012KT 1 1/2SM -SN BR FEW008 OVC015
      TEMPO 2701/2703 3/4SM -SN BR SCT008 BKN010
     FM270300 10010KT 1SM -SN BR BKN007 OVC012
      TEMPO 2704/2706 3SM -SN SCT008 BKN018
     FM270600 16012KT P6SM VCSH SCT018 OVC030
     FM271100 17010KT P6SM SCT030 BKN045 OVC070
     FM271800 15014KT P6SM SCT030 OVC045
     FM280200 18009KT P6SM SCT050 BKN080 OVC120=

USA.gov is the U.S. government's official web portal to all federal, state and local government web resources and services.